createdAt,value
2023-05-14T00:01:32.191Z,8.20
2023-05-14T00:03:59.318Z,8.63
2023-05-14T00:06:26.186Z,8.50
2023-05-14T00:08:52.883Z,8.23
2023-05-14T00:11:19.864Z,8.63
2023-05-14T00:13:46.673Z,7.97
2023-05-14T00:16:13.455Z,7.20
2023-05-14T00:18:40.251Z,7.83
2023-05-14T00:21:07.082Z,7.80
2023-05-14T00:23:33.917Z,8.07
2023-05-14T00:26:00.595Z,8.17
2023-05-14T00:28:27.496Z,8.40
2023-05-14T00:30:54.431Z,7.60
2023-05-14T00:33:21.166Z,7.80
2023-05-14T00:35:47.882Z,8.33
2023-05-14T00:38:19.504Z,8.47
2023-05-14T00:40:51.431Z,8.33
2023-05-14T00:43:21.795Z,8.83
2023-05-14T00:45:53.091Z,8.33
2023-05-14T00:48:23.295Z,8.90
2023-05-14T00:50:51.336Z,9.10
2023-05-14T00:53:21.345Z,8.43
2023-05-14T00:55:49.617Z,9.03
2023-05-14T00:58:16.550Z,8.73
2023-05-14T01:00:43.329Z,9.17
2023-05-14T01:03:10.283Z,9.43
2023-05-14T01:05:43.817Z,9.50
2023-05-14T01:08:25.992Z,9.27
2023-05-14T01:10:55.023Z,9.57
2023-05-14T01:14:06.764Z,9.60
2023-05-14T01:16:34.840Z,9.80
2023-05-14T01:19:02.428Z,9.70
2023-05-14T01:21:43.304Z,9.73
2023-05-14T01:24:10.084Z,9.30
2023-05-14T01:26:37.236Z,9.70
2023-05-14T01:29:14.401Z,10.23
2023-05-14T01:31:43.732Z,9.70
2023-05-14T01:34:12.374Z,9.77
2023-05-14T01:36:40.860Z,10.23
2023-05-14T01:39:09.831Z,10.60
2023-05-14T01:41:37.647Z,10.20
2023-05-14T01:44:04.539Z,10.60
2023-05-14T01:46:32.957Z,10.23
2023-05-14T01:49:00.319Z,10.53
2023-05-14T01:51:27.278Z,10.27
2023-05-14T01:53:54.095Z,10.60
2023-05-14T01:56:24.256Z,10.77
2023-05-14T01:58:50.969Z,11.17
2023-05-14T02:01:17.685Z,10.07
2023-05-14T02:03:44.460Z,10.50
2023-05-14T02:06:11.222Z,10.40
2023-05-14T02:08:37.889Z,11.03
2023-05-14T02:11:04.677Z,10.17
2023-05-14T02:13:31.328Z,10.10
2023-05-14T02:15:58.072Z,10.97
2023-05-14T02:18:24.855Z,10.23
2023-05-14T02:20:51.584Z,10.17
2023-05-14T02:23:18.717Z,10.00
2023-05-14T02:25:46.222Z,10.33
2023-05-14T02:28:12.893Z,10.00
2023-05-14T02:30:40.260Z,9.70
2023-05-14T02:33:07.124Z,9.53
2023-05-14T02:35:33.866Z,10.03
2023-05-14T02:38:00.723Z,9.77
2023-05-14T02:40:27.402Z,9.40
2023-05-14T02:42:54.184Z,10.07
2023-05-14T02:45:21.758Z,9.60
2023-05-14T02:47:48.530Z,9.83
2023-05-14T02:50:15.279Z,9.77
2023-05-14T02:52:41.968Z,9.63
2023-05-14T02:55:09.304Z,9.53
2023-05-14T02:57:36.012Z,8.83
2023-05-14T03:00:02.724Z,9.20
2023-05-14T03:02:29.868Z,9.17
2023-05-14T03:04:57.041Z,9.23
2023-05-14T03:07:23.883Z,9.27
2023-05-14T03:09:50.567Z,8.90
2023-05-14T03:12:18.289Z,9.30
2023-05-14T03:14:44.964Z,8.60
2023-05-14T03:17:11.826Z,9.23
2023-05-14T03:19:38.614Z,9.23
2023-05-14T03:22:05.348Z,9.03
2023-05-14T03:24:32.061Z,9.07
2023-05-14T03:26:58.770Z,9.60
2023-05-14T03:29:25.478Z,8.87
2023-05-14T03:31:52.246Z,9.53
2023-05-14T03:34:19.036Z,9.63
2023-05-14T03:36:45.790Z,9.70
2023-05-14T03:39:15.606Z,9.33
2023-05-14T03:41:42.320Z,9.60
2023-05-14T03:44:09.044Z,9.33
2023-05-14T03:46:36.018Z,9.17
2023-05-14T03:49:02.848Z,10.00
2023-05-14T03:51:29.628Z,9.47
2023-05-14T03:53:56.667Z,9.07
2023-05-14T03:56:23.360Z,9.53
2023-05-14T03:58:50.089Z,9.23
2023-05-14T04:01:16.913Z,9.97
2023-05-14T04:03:43.884Z,10.07
2023-05-14T04:06:10.686Z,10.33
2023-05-14T04:08:37.379Z,9.80
2023-05-14T04:11:06.835Z,9.90
2023-05-14T04:13:33.504Z,10.00
2023-05-14T04:16:00.645Z,10.67
2023-05-14T04:18:27.442Z,10.30
2023-05-14T04:20:54.297Z,10.70
2023-05-14T04:23:21.004Z,10.40
2023-05-14T04:25:47.730Z,10.80
2023-05-14T04:28:15.169Z,10.40
2023-05-14T04:30:42.084Z,10.43
2023-05-14T04:33:08.808Z,10.50
2023-05-14T04:35:35.672Z,11.13
2023-05-14T04:38:02.354Z,11.07
2023-05-14T04:40:29.015Z,11.37
2023-05-14T04:42:55.834Z,11.07
2023-05-14T04:45:22.641Z,11.20
2023-05-14T04:47:49.394Z,10.73
2023-05-14T04:50:16.671Z,11.00
2023-05-14T04:52:43.358Z,11.33
2023-05-14T04:55:10.436Z,11.20
2023-05-14T04:57:37.100Z,11.50
2023-05-14T05:00:06.160Z,11.00
2023-05-14T05:02:34.946Z,11.47
2023-05-14T05:05:01.817Z,11.67
2023-05-14T05:07:28.523Z,12.20
2023-05-14T05:09:55.217Z,11.87
2023-05-14T05:12:21.978Z,11.90
2023-05-14T05:14:48.687Z,11.57
2023-05-14T05:17:15.471Z,11.63
2023-05-14T05:19:44.285Z,11.80
2023-05-14T05:22:11.525Z,11.70
2023-05-14T05:24:38.243Z,12.40
2023-05-14T05:27:05.686Z,11.83
2023-05-14T05:29:32.491Z,12.13
2023-05-14T05:31:59.449Z,12.50
2023-05-14T05:34:26.143Z,12.57
2023-05-14T05:36:52.836Z,12.93
2023-05-14T05:39:19.603Z,12.70
2023-05-14T05:41:46.308Z,13.07
2023-05-14T05:44:13.164Z,13.03
2023-05-14T05:46:39.934Z,12.90
2023-05-14T05:49:06.650Z,12.73
2023-05-14T05:51:33.559Z,13.43
2023-05-14T05:54:00.358Z,12.00
2023-05-14T05:56:27.038Z,13.07
2023-05-14T05:58:54.611Z,13.10
2023-05-14T06:01:21.351Z,12.67
2023-05-14T06:03:48.802Z,13.00
2023-05-14T06:06:15.886Z,13.10
2023-05-14T06:08:42.630Z,13.37
2023-05-14T06:11:09.365Z,13.03
2023-05-14T06:13:36.271Z,13.50
2023-05-14T06:16:03.001Z,13.07
2023-05-14T06:18:29.725Z,13.27
2023-05-14T06:20:57.286Z,14.07
2023-05-14T06:23:23.951Z,13.10
2023-05-14T06:25:51.218Z,13.40
2023-05-14T06:28:18.085Z,14.13
2023-05-14T06:30:44.784Z,13.93
2023-05-14T06:33:13.609Z,13.20
2023-05-14T06:35:40.323Z,14.27
2023-05-14T06:38:07.227Z,13.43
2023-05-14T06:40:33.992Z,13.47
2023-05-14T06:43:00.725Z,13.43
2023-05-14T06:45:27.470Z,13.93
2023-05-14T06:47:54.283Z,13.30
2023-05-14T06:50:21.364Z,13.37
2023-05-14T06:52:48.433Z,13.37
2023-05-14T06:55:15.212Z,14.10
2023-05-14T06:57:41.920Z,13.83
2023-05-14T07:00:09.192Z,13.60
2023-05-14T07:02:36.025Z,14.00
2023-05-14T07:05:03.302Z,13.67
2023-05-14T07:07:29.994Z,14.00
2023-05-14T07:09:56.704Z,12.80
2023-05-14T07:12:23.421Z,13.83
2023-05-14T07:14:50.803Z,13.70
2023-05-14T07:17:17.691Z,13.23
2023-05-14T07:19:44.454Z,13.40
2023-05-14T07:22:11.202Z,12.20
2023-05-14T07:24:37.900Z,12.77
2023-05-14T07:27:04.996Z,11.93
2023-05-14T07:29:35.114Z,12.40
2023-05-14T07:32:02.237Z,11.90
2023-05-14T07:34:28.990Z,12.53
2023-05-14T07:37:01.206Z,11.60
2023-05-14T07:39:27.989Z,10.73
2023-05-14T07:41:57.815Z,9.83
2023-05-14T07:44:24.654Z,10.17
2023-05-14T07:46:51.572Z,10.20
2023-05-14T07:49:25.633Z,10.23
2023-05-14T07:51:52.399Z,10.40
2023-05-14T07:54:19.180Z,10.87
2023-05-14T07:56:45.902Z,10.30
2023-05-14T07:59:13.152Z,10.20
2023-05-14T08:01:39.908Z,10.63
2023-05-14T08:04:06.893Z,10.10
2023-05-14T08:06:40.526Z,9.40
2023-05-14T08:09:07.348Z,9.47
2023-05-14T08:11:34.580Z,9.77
2023-05-14T08:14:06.618Z,9.30
2023-05-14T08:16:33.700Z,8.63
2023-05-14T08:19:00.526Z,8.53
2023-05-14T08:21:28.303Z,8.10
2023-05-14T08:23:55.060Z,7.67
2023-05-14T08:26:22.284Z,7.60
2023-05-14T08:28:50.981Z,6.97
2023-05-14T08:31:17.782Z,7.03
2023-05-14T08:33:44.509Z,7.50
2023-05-14T08:36:11.332Z,7.63
2023-05-14T08:38:38.090Z,7.07
2023-05-14T08:41:11.818Z,6.77
2023-05-14T08:44:01.751Z,6.80
2023-05-14T08:46:31.217Z,6.30
2023-05-14T08:49:10.488Z,5.63
2023-05-14T08:51:37.256Z,5.10
2023-05-14T08:54:04.554Z,5.43
2023-05-14T08:56:33.183Z,5.53
2023-05-14T08:59:00.873Z,5.00
2023-05-14T09:01:29.315Z,4.30
2023-05-14T09:03:56.553Z,4.47
2023-05-14T09:06:24.464Z,4.60
2023-05-14T09:08:51.416Z,4.60
2023-05-14T09:11:18.094Z,4.57
2023-05-14T09:13:44.811Z,4.43
2023-05-14T09:16:11.670Z,4.10
2023-05-14T09:18:38.593Z,4.20
2023-05-14T09:21:05.450Z,4.17
2023-05-14T09:23:34.588Z,3.73
2023-05-14T09:26:05.771Z,3.60
2023-05-14T09:28:32.416Z,4.03
2023-05-14T09:31:01.715Z,4.57
2023-05-14T09:33:29.743Z,4.20
2023-05-14T09:35:59.994Z,4.50
2023-05-14T09:38:31.295Z,3.80
2023-05-14T09:40:58.851Z,3.78
2023-05-14T09:43:26.337Z,3.53
2023-05-14T09:45:53.694Z,3.70
2023-05-14T09:48:20.729Z,3.78
2023-05-14T09:50:47.553Z,3.50
2023-05-14T09:53:14.779Z,3.65
2023-05-14T09:55:41.962Z,3.70
2023-05-14T09:58:08.833Z,3.30
2023-05-14T10:00:36.065Z,3.40
2023-05-14T10:03:08.000Z,3.55
2023-05-14T10:05:37.934Z,3.75
2023-05-14T10:08:14.261Z,4.30
2023-05-14T10:10:41.125Z,4.43
2023-05-14T10:13:20.834Z,4.43
2023-05-14T10:16:21.343Z,3.20
2023-05-14T10:18:53.533Z,3.70
2023-05-14T10:21:24.582Z,3.60
2023-05-14T10:23:51.731Z,3.35
2023-05-14T10:26:18.658Z,3.00
2023-05-14T10:28:45.741Z,3.33
2023-05-14T10:31:14.485Z,3.50
2023-05-14T10:33:49.581Z,3.50
2023-05-14T10:36:17.815Z,3.50
2023-05-14T10:38:44.504Z,3.40
2023-05-14T10:41:13.128Z,3.45
2023-05-14T10:43:41.740Z,3.22
2023-05-14T10:46:10.128Z,3.03
2023-05-14T10:48:38.065Z,3.50
2023-05-14T10:51:07.756Z,3.25
2023-05-14T10:53:37.350Z,3.10
2023-05-14T10:56:08.497Z,2.88
2023-05-14T10:58:39.682Z,3.35
2023-05-14T11:01:08.546Z,3.15
2023-05-14T11:03:43.322Z,3.17
2023-05-14T11:06:11.443Z,2.83
2023-05-14T11:08:38.881Z,3.35
2023-05-14T11:11:12.333Z,3.20
2023-05-14T11:13:39.112Z,3.13
2023-05-14T11:16:23.423Z,3.45
2023-05-14T11:19:02.360Z,3.38
2023-05-14T11:21:30.462Z,3.97
2023-05-14T11:23:57.721Z,3.13
2023-05-14T11:26:24.577Z,2.83
2023-05-14T11:28:51.388Z,2.90
2023-05-14T11:31:18.176Z,3.30
2023-05-14T11:33:47.138Z,2.95
2023-05-14T11:36:18.992Z,2.72
2023-05-14T11:38:54.930Z,3.13
2023-05-14T11:41:28.349Z,2.80
2023-05-14T11:43:55.158Z,3.17
2023-05-14T11:46:22.617Z,3.30
2023-05-14T11:48:55.582Z,3.38
2023-05-14T11:51:23.594Z,2.83
2023-05-14T11:53:50.620Z,2.95
2023-05-14T11:56:22.790Z,2.85
2023-05-14T11:58:49.603Z,2.92
2023-05-14T12:01:16.733Z,2.40
2023-05-14T12:03:43.802Z,2.60
2023-05-14T12:06:10.817Z,3.08
2023-05-14T12:08:37.880Z,2.60
2023-05-14T12:11:04.858Z,2.63
2023-05-14T12:13:32.339Z,3.00
2023-05-14T12:16:01.016Z,3.05
2023-05-14T12:18:29.918Z,2.80
2023-05-14T12:20:59.351Z,3.38
2023-05-14T12:23:30.931Z,2.88
2023-05-14T12:26:08.923Z,3.65
2023-05-14T12:28:38.275Z,3.45
2023-05-14T12:31:05.617Z,3.10
2023-05-14T12:33:32.603Z,2.90
2023-05-14T12:36:19.812Z,2.60
2023-05-14T12:38:47.061Z,3.13
2023-05-14T12:41:13.958Z,3.70
2023-05-14T12:43:44.818Z,3.47
2023-05-14T12:46:11.663Z,3.72
2023-05-14T12:48:38.703Z,2.83
2023-05-14T12:51:05.449Z,2.80
2023-05-14T12:53:32.411Z,3.17
2023-05-14T12:55:59.168Z,2.95
2023-05-14T12:58:25.878Z,2.90
2023-05-14T13:00:52.711Z,2.90
2023-05-14T13:03:19.554Z,2.80
2023-05-14T13:05:46.404Z,2.92
2023-05-14T13:08:15.060Z,3.00
2023-05-14T13:10:41.844Z,2.80
2023-05-14T13:13:08.646Z,2.88
2023-05-14T13:15:36.746Z,3.15
2023-05-14T13:18:03.954Z,3.00
2023-05-14T13:20:31.383Z,3.13
2023-05-14T13:22:58.766Z,2.83
2023-05-14T13:25:26.028Z,3.00
2023-05-14T13:27:52.942Z,2.70
2023-05-14T13:30:20.301Z,2.97
2023-05-14T13:32:47.147Z,2.70
2023-05-14T13:35:14.355Z,3.17
2023-05-14T13:37:41.156Z,2.88
2023-05-14T13:40:08.620Z,2.97
2023-05-14T13:42:36.457Z,3.00
2023-05-14T13:45:04.219Z,3.10
2023-05-14T13:47:31.523Z,3.30
2023-05-14T13:49:58.247Z,3.17
2023-05-14T13:52:25.576Z,3.10
2023-05-14T13:54:53.399Z,3.10
2023-05-14T13:57:20.361Z,2.80
2023-05-14T13:59:47.781Z,2.90
2023-05-14T14:02:14.937Z,2.70
2023-05-14T14:04:41.815Z,3.08
2023-05-14T14:07:09.334Z,3.63
2023-05-14T14:09:37.139Z,2.95
2023-05-14T14:12:04.753Z,2.95
2023-05-14T14:14:32.035Z,2.90
2023-05-14T14:17:04.969Z,2.60
2023-05-14T14:19:31.790Z,2.63
2023-05-14T14:22:04.737Z,2.85
2023-05-14T14:24:31.483Z,2.90
2023-05-14T14:26:58.224Z,2.85
2023-05-14T14:29:25.057Z,3.25
2023-05-14T14:31:51.961Z,4.00
2023-05-14T14:34:20.514Z,3.33
2023-05-14T14:36:47.989Z,3.47
2023-05-14T14:39:15.036Z,3.75
2023-05-14T14:41:41.748Z,3.30
2023-05-14T14:44:08.619Z,3.28
2023-05-14T14:46:35.469Z,2.90
2023-05-14T14:49:02.279Z,3.17
2023-05-14T14:51:30.405Z,2.90
2023-05-14T14:54:02.560Z,2.75
2023-05-14T14:56:29.456Z,2.72
2023-05-14T14:58:59.397Z,2.72
2023-05-14T15:01:26.381Z,3.33
2023-05-14T15:03:53.492Z,3.28
2023-05-14T15:06:20.408Z,3.28
2023-05-14T15:08:47.206Z,3.20
2023-05-14T15:11:14.987Z,3.20
2023-05-14T15:13:42.599Z,3.08
2023-05-14T15:16:09.559Z,2.73
2023-05-14T15:18:36.486Z,3.03
2023-05-14T15:21:03.466Z,2.80
2023-05-14T15:23:30.527Z,2.88
2023-05-14T15:25:57.596Z,2.83
2023-05-14T15:28:24.384Z,2.80
2023-05-14T15:30:51.246Z,2.67
2023-05-14T15:33:19.704Z,3.10
2023-05-14T15:35:46.691Z,3.00
2023-05-14T15:38:16.236Z,3.08
2023-05-14T15:40:43.056Z,3.13
2023-05-14T15:43:09.810Z,2.90
2023-05-14T15:45:36.770Z,3.22
2023-05-14T15:48:03.679Z,3.50
2023-05-14T15:50:30.562Z,3.47
2023-05-14T15:52:57.774Z,3.20
2023-05-14T15:55:24.688Z,2.80
2023-05-14T15:57:51.800Z,3.10
2023-05-14T16:00:18.932Z,2.92
2023-05-14T16:02:46.161Z,3.03
2023-05-14T16:05:14.012Z,3.00
2023-05-14T16:07:41.029Z,3.00
2023-05-14T16:10:08.542Z,3.28
2023-05-14T16:12:35.416Z,3.85
2023-05-14T16:15:06.202Z,3.20
2023-05-14T16:17:34.107Z,3.80
2023-05-14T16:20:01.467Z,4.00
2023-05-14T16:22:29.588Z,3.47
2023-05-14T16:24:56.323Z,3.23
2023-05-14T16:27:23.230Z,3.40
2023-05-14T16:29:50.087Z,3.67
2023-05-14T16:32:16.860Z,4.37
2023-05-14T16:34:49.923Z,3.90
2023-05-14T16:37:17.903Z,4.10
2023-05-14T16:39:44.670Z,3.60
2023-05-14T16:42:11.787Z,3.23
2023-05-14T16:44:38.838Z,3.30
2023-05-14T16:47:05.901Z,3.37
2023-05-14T16:49:38.702Z,3.30
2023-05-14T16:52:06.247Z,3.20
2023-05-14T16:54:33.374Z,3.70
2023-05-14T16:57:00.292Z,3.70
2023-05-14T16:59:27.124Z,4.10
2023-05-14T17:01:54.183Z,4.13
2023-05-14T17:04:21.415Z,4.27
2023-05-14T17:06:48.653Z,4.10
2023-05-14T17:09:15.533Z,3.83
2023-05-14T17:11:42.238Z,3.50
2023-05-14T17:14:09.312Z,3.60
2023-05-14T17:16:36.362Z,3.57
2023-05-14T17:19:03.279Z,4.07
2023-05-14T17:21:30.021Z,4.00
2023-05-14T17:23:56.726Z,3.60
2023-05-14T17:26:23.547Z,4.00
2023-05-14T17:28:50.367Z,3.57
2023-05-14T17:31:17.331Z,3.83
2023-05-14T17:33:57.734Z,3.90
2023-05-14T17:36:28.245Z,3.87
2023-05-14T17:38:55.219Z,3.63
2023-05-14T17:41:21.986Z,4.13
2023-05-14T17:43:48.908Z,7.03
2023-05-14T17:46:15.935Z,3.93
2023-05-14T17:48:43.078Z,3.67
2023-05-14T17:51:12.102Z,3.77
2023-05-14T17:53:38.982Z,3.57
2023-05-14T17:56:05.876Z,3.90
2023-05-14T17:58:32.616Z,3.73
2023-05-14T18:00:59.479Z,3.63
2023-05-14T18:03:26.368Z,3.50
2023-05-14T18:05:53.142Z,3.57
2023-05-14T18:08:20.162Z,4.03
2023-05-14T18:10:46.989Z,3.70
2023-05-14T18:13:13.757Z,3.80
2023-05-14T18:15:40.475Z,3.63
2023-05-14T18:18:07.356Z,3.80
2023-05-14T18:20:35.594Z,3.70
2023-05-14T18:23:03.076Z,3.70
2023-05-14T18:25:29.958Z,3.33
2023-05-14T18:27:56.694Z,3.93
2023-05-14T18:30:24.195Z,4.17
2023-05-14T18:32:51.036Z,3.60
2023-05-14T18:35:17.991Z,3.50
2023-05-14T18:37:45.108Z,3.83
2023-05-14T18:40:16.865Z,3.67
2023-05-14T18:42:45.117Z,4.30
2023-05-14T18:45:12.046Z,4.10
2023-05-14T18:47:39.885Z,3.77
2023-05-14T18:50:07.992Z,4.10
2023-05-14T18:52:35.104Z,3.63
2023-05-14T18:55:01.855Z,3.83
2023-05-14T18:57:29.604Z,4.00
2023-05-14T18:59:58.712Z,3.50
2023-05-14T19:02:27.518Z,3.90
2023-05-14T19:04:54.358Z,3.63
2023-05-14T19:07:24.172Z,4.03
2023-05-14T19:09:51.163Z,3.60
2023-05-14T19:12:17.952Z,3.67
2023-05-14T19:14:44.736Z,4.10
2023-05-14T19:17:11.551Z,3.93
2023-05-14T19:19:39.534Z,4.27
2023-05-14T19:22:06.900Z,3.90
2023-05-14T19:24:33.768Z,4.20
2023-05-14T19:27:00.863Z,4.03
2023-05-14T19:29:27.635Z,4.00
2023-05-14T19:31:54.451Z,4.40
2023-05-14T19:34:21.706Z,3.97
2023-05-14T19:36:48.629Z,4.20
2023-05-14T19:39:15.551Z,3.90
2023-05-14T19:41:42.336Z,4.17
2023-05-14T19:44:09.088Z,4.03
2023-05-14T19:46:35.907Z,4.50
2023-05-14T19:49:02.769Z,4.30
2023-05-14T19:51:29.463Z,4.60
2023-05-14T19:53:56.174Z,4.78
2023-05-14T19:56:24.290Z,4.60
2023-05-14T19:58:52.489Z,4.87
2023-05-14T20:01:21.129Z,4.77
2023-05-14T20:03:47.937Z,4.60
2023-05-14T20:06:14.792Z,4.70
2023-05-14T20:08:41.506Z,5.03
2023-05-14T20:11:08.235Z,4.40
2023-05-14T20:13:36.639Z,4.40
2023-05-14T20:16:03.383Z,4.80
2023-05-14T20:18:30.273Z,8.40
2023-05-14T20:20:57.117Z,7.20
2023-05-14T20:23:23.854Z,5.00
2023-05-14T20:25:51.441Z,4.13
2023-05-14T20:28:18.180Z,4.00
2023-05-14T20:30:44.935Z,4.10
2023-05-14T20:33:13.631Z,4.07
2023-05-14T20:35:44.082Z,4.27
2023-05-14T20:38:12.937Z,3.97
2023-05-14T20:40:40.115Z,4.23
2023-05-14T20:43:06.913Z,4.30
2023-05-14T20:45:33.725Z,4.10
2023-05-14T20:48:00.819Z,4.10
2023-05-14T20:50:28.119Z,4.80
2023-05-14T20:52:55.670Z,5.00
2023-05-14T20:55:22.926Z,4.57
2023-05-14T20:57:50.086Z,4.43
2023-05-14T21:00:17.249Z,4.57
2023-05-14T21:02:44.011Z,4.83
2023-05-14T21:05:11.147Z,4.80
2023-05-14T21:07:39.621Z,4.43
2023-05-14T21:10:08.286Z,4.83
2023-05-14T21:12:35.026Z,4.67
2023-05-14T21:15:01.727Z,4.53
2023-05-14T21:17:28.503Z,5.00
2023-05-14T21:19:55.241Z,6.00
2023-05-14T21:22:22.401Z,5.67
2023-05-14T21:24:50.681Z,5.60
2023-05-14T21:27:17.488Z,5.83
2023-05-14T21:29:46.468Z,5.70
2023-05-14T21:32:13.188Z,5.40
2023-05-14T21:34:39.967Z,6.00
2023-05-14T21:37:06.730Z,6.47
2023-05-14T21:39:33.468Z,6.20
2023-05-14T21:42:00.195Z,6.90
2023-05-14T21:44:26.965Z,6.93
2023-05-14T21:46:53.709Z,6.57
2023-05-14T21:49:20.502Z,6.10
2023-05-14T21:51:47.243Z,6.63
2023-05-14T21:54:14.254Z,6.67
2023-05-14T21:56:40.985Z,6.53
2023-05-14T21:59:07.707Z,6.83
2023-05-14T22:01:42.185Z,6.77
2023-05-14T22:04:17.722Z,7.13
2023-05-14T22:06:44.550Z,7.03
2023-05-14T22:09:11.612Z,7.10
2023-05-14T22:11:38.436Z,7.67
2023-05-14T22:14:05.151Z,8.13
2023-05-14T22:16:33.279Z,7.43
2023-05-14T22:19:00.085Z,8.17
2023-05-14T22:21:26.945Z,8.47
2023-05-14T22:23:53.972Z,7.77
2023-05-14T22:26:21.833Z,8.90
2023-05-14T22:28:49.817Z,8.37
2023-05-14T22:31:16.650Z,8.53
2023-05-14T22:33:43.447Z,9.03
2023-05-14T22:36:10.696Z,9.77
2023-05-14T22:38:38.583Z,9.57
2023-05-14T22:41:05.543Z,10.73
2023-05-14T22:43:32.293Z,11.37
2023-05-14T22:45:59.019Z,11.40
2023-05-14T22:48:26.066Z,11.47
2023-05-14T22:50:53.557Z,12.00
2023-05-14T22:53:20.286Z,12.23
2023-05-14T22:55:47.022Z,12.57
2023-05-14T22:58:13.690Z,13.00
2023-05-14T23:00:40.440Z,13.30
2023-05-14T23:03:07.200Z,12.80
2023-05-14T23:05:34.064Z,13.73
2023-05-14T23:08:00.954Z,13.67
2023-05-14T23:10:27.845Z,13.33
2023-05-14T23:12:54.523Z,14.47
2023-05-14T23:15:21.226Z,13.97
2023-05-14T23:17:48.073Z,13.30
2023-05-14T23:20:15.108Z,13.13
2023-05-14T23:22:47.498Z,12.80
2023-05-14T23:25:14.557Z,12.87
2023-05-14T23:27:41.397Z,13.80
2023-05-14T23:30:08.583Z,14.30
2023-05-14T23:32:35.250Z,14.27
2023-05-14T23:35:01.941Z,14.87
2023-05-14T23:37:28.618Z,14.33
2023-05-14T23:39:55.742Z,14.83
2023-05-14T23:42:22.979Z,15.20
2023-05-14T23:44:49.785Z,15.23
2023-05-14T23:47:16.570Z,15.47
2023-05-14T23:49:43.335Z,14.60
2023-05-14T23:52:10.113Z,15.50
2023-05-14T23:54:36.812Z,15.43
2023-05-14T23:57:04.177Z,14.47
2023-05-14T23:59:30.890Z,14.90
